createdAt,value
2024-02-27T00:00:29.950Z,8.89
2024-02-27T00:01:29.991Z,8.89
2024-02-27T00:02:30.345Z,8.93
2024-02-27T00:03:29.967Z,8.93
2024-02-27T00:04:30.028Z,8.87
2024-02-27T00:05:30.028Z,8.87
2024-02-27T00:06:30.036Z,8.88
2024-02-27T00:07:29.981Z,8.80
2024-02-27T00:08:29.946Z,8.69
2024-02-27T00:09:29.956Z,8.60
2024-02-27T00:10:29.969Z,8.54
2024-02-27T00:11:29.965Z,8.60
2024-02-27T00:12:30.338Z,8.68
2024-02-27T00:13:29.950Z,8.70
2024-02-27T00:14:29.970Z,8.73
2024-02-27T00:15:29.991Z,8.75
2024-02-27T00:16:29.958Z,8.76
2024-02-27T00:17:30.007Z,8.72
2024-02-27T00:18:30.177Z,8.80
2024-02-27T00:19:30.140Z,8.83
2024-02-27T00:20:30.048Z,8.87
2024-02-27T00:21:30.041Z,8.88
2024-02-27T00:22:30.025Z,8.89
2024-02-27T00:23:29.985Z,8.94
2024-02-27T00:24:30.101Z,8.82
2024-02-27T00:25:29.979Z,8.69
2024-02-27T00:26:29.995Z,8.61
2024-02-27T00:27:30.088Z,8.65
2024-02-27T00:28:29.984Z,8.71
2024-02-27T00:29:30.041Z,8.71
2024-02-27T00:30:30.060Z,8.61
2024-02-27T00:31:30.061Z,8.54
2024-02-27T00:32:30.338Z,8.47
2024-02-27T00:33:30.034Z,8.55
2024-02-27T00:34:30.072Z,8.67
2024-02-27T00:35:30.036Z,8.70
2024-02-27T00:36:30.230Z,8.57
2024-02-27T00:37:30.328Z,8.51
2024-02-27T00:38:30.028Z,8.45
2024-02-27T00:39:30.129Z,8.45
2024-02-27T00:40:30.029Z,8.52
2024-02-27T00:41:30.000Z,8.52
2024-02-27T00:42:30.438Z,8.57
2024-02-27T00:43:30.000Z,8.55
2024-02-27T00:44:30.041Z,8.47
2024-02-27T00:45:30.019Z,8.47
2024-02-27T00:46:30.057Z,8.34
2024-02-27T00:47:30.356Z,8.33
2024-02-27T00:48:30.149Z,8.39
2024-02-27T00:49:30.099Z,8.32
2024-02-27T00:50:30.048Z,8.26
2024-02-27T00:51:30.058Z,8.24
2024-02-27T00:52:30.149Z,8.21
2024-02-27T00:53:30.013Z,8.30
2024-02-27T00:54:30.094Z,8.32
2024-02-27T00:55:30.101Z,8.31
2024-02-27T00:56:30.102Z,8.27
2024-02-27T00:57:30.182Z,8.35
2024-02-27T00:58:30.182Z,8.23
2024-02-27T00:59:30.209Z,8.10
2024-02-27T01:00:30.224Z,8.17
2024-02-27T01:01:30.332Z,8.25
2024-02-27T01:02:30.353Z,8.21
2024-02-27T01:03:30.458Z,8.17
2024-02-27T01:04:30.478Z,8.19
2024-02-27T01:05:30.600Z,8.11
2024-02-27T01:06:30.592Z,8.12
2024-02-27T01:07:30.851Z,8.19
2024-02-27T01:08:30.725Z,8.15
2024-02-27T01:09:30.718Z,8.18
2024-02-27T01:10:30.750Z,8.18
2024-02-27T01:11:30.791Z,8.10
2024-02-27T01:12:30.894Z,8.14
2024-02-27T01:13:30.865Z,8.06
2024-02-27T01:14:30.941Z,8.09
2024-02-27T01:15:31.035Z,8.17
2024-02-27T01:16:31.014Z,8.18
2024-02-27T01:17:31.090Z,8.15
2024-02-27T01:18:31.212Z,8.10
2024-02-27T01:19:31.224Z,8.22
2024-02-27T01:20:31.154Z,8.25
2024-02-27T01:21:31.257Z,8.16
2024-02-27T01:22:31.354Z,8.22
2024-02-27T01:23:31.308Z,8.24
2024-02-27T01:24:31.453Z,8.23
2024-02-27T01:25:31.413Z,8.27
2024-02-27T01:26:31.487Z,8.39
2024-02-27T01:27:31.613Z,8.32
2024-02-27T01:28:31.529Z,8.39
2024-02-27T01:29:31.572Z,8.32
2024-02-27T01:30:31.687Z,8.14
2024-02-27T01:31:31.704Z,8.13
2024-02-27T01:32:31.793Z,8.24
2024-02-27T01:33:31.893Z,8.25
2024-02-27T01:34:31.978Z,8.26
2024-02-27T01:35:31.893Z,8.30
2024-02-27T01:36:31.933Z,8.31
2024-02-27T01:37:31.957Z,8.32
2024-02-27T01:38:32.003Z,8.29
2024-02-27T01:39:32.127Z,8.18
2024-02-27T01:40:32.157Z,8.20
2024-02-27T01:41:32.112Z,8.31
2024-02-27T01:42:32.376Z,8.29
2024-02-27T01:43:32.222Z,8.26
2024-02-27T01:44:32.245Z,8.36
2024-02-27T01:45:32.394Z,8.45
2024-02-27T01:46:32.287Z,8.54
2024-02-27T01:47:32.378Z,8.55
2024-02-27T01:48:33.402Z,8.60
2024-02-27T01:49:32.503Z,8.61
2024-02-27T01:50:32.405Z,8.61
2024-02-27T01:51:32.482Z,8.67
2024-02-27T01:52:32.399Z,8.67
2024-02-27T01:53:32.417Z,8.72
2024-02-27T01:54:32.570Z,8.70
2024-02-27T01:55:32.499Z,8.57
2024-02-27T01:56:32.570Z,8.57
2024-02-27T01:57:32.659Z,8.36
2024-02-27T01:58:32.553Z,8.24
2024-02-27T01:59:32.588Z,8.31
2024-02-27T02:00:32.628Z,8.37
2024-02-27T02:01:32.716Z,8.39
2024-02-27T02:02:32.679Z,8.42
2024-02-27T02:03:32.708Z,8.50
2024-02-27T02:04:32.909Z,8.49
2024-02-27T02:05:32.707Z,8.54
2024-02-27T02:06:32.837Z,8.55
2024-02-27T02:07:32.785Z,8.57
2024-02-27T02:08:32.784Z,8.50
2024-02-27T02:09:32.906Z,8.34
2024-02-27T02:10:32.839Z,8.26
2024-02-27T02:11:32.918Z,8.18
2024-02-27T02:12:33.030Z,8.15
2024-02-27T02:13:32.980Z,8.19
2024-02-27T02:14:32.993Z,8.27
2024-02-27T02:15:33.113Z,8.38
2024-02-27T02:16:33.118Z,8.44
2024-02-27T02:17:33.340Z,8.35
2024-02-27T02:18:33.402Z,8.30
2024-02-27T02:19:33.347Z,8.34
2024-02-27T02:20:33.285Z,8.39
2024-02-27T02:21:33.346Z,8.18
2024-02-27T02:22:33.861Z,8.01
2024-02-27T02:23:33.407Z,8.03
2024-02-27T02:24:33.461Z,8.02
2024-02-27T02:25:33.463Z,8.05
2024-02-27T02:26:33.500Z,8.03
2024-02-27T02:27:33.910Z,7.90
2024-02-27T02:28:33.604Z,7.93
2024-02-27T02:29:33.646Z,8.01
2024-02-27T02:30:33.790Z,8.01
2024-02-27T02:31:33.731Z,8.09
2024-02-27T02:32:33.819Z,8.16
2024-02-27T02:33:33.916Z,8.26
2024-02-27T02:34:33.928Z,8.32
2024-02-27T02:35:33.860Z,8.31
2024-02-27T02:36:34.022Z,8.28
2024-02-27T02:37:33.960Z,8.24
2024-02-27T02:38:33.990Z,8.22
2024-02-27T02:39:34.094Z,8.08
2024-02-27T02:40:34.032Z,8.03
2024-02-27T02:41:34.081Z,8.02
2024-02-27T02:42:34.398Z,7.86
2024-02-27T02:43:34.153Z,7.87
2024-02-27T02:44:34.281Z,7.89
2024-02-27T02:45:34.244Z,7.94
2024-02-27T02:46:34.266Z,7.99
2024-02-27T02:47:34.316Z,7.97
2024-02-27T02:48:34.479Z,8.04
2024-02-27T02:49:35.654Z,8.07
2024-02-27T02:50:34.403Z,8.03
2024-02-27T02:51:34.467Z,8.00
2024-02-27T02:52:34.425Z,8.12
2024-02-27T02:53:34.373Z,8.12
2024-02-27T02:54:34.436Z,8.07
2024-02-27T02:55:34.387Z,8.16
2024-02-27T02:56:34.404Z,8.22
2024-02-27T02:57:34.440Z,8.27
2024-02-27T02:58:34.417Z,8.22
2024-02-27T02:59:34.365Z,8.16
2024-02-27T03:00:34.463Z,8.07
2024-02-27T03:01:34.448Z,7.95
2024-02-27T03:02:34.384Z,7.93
2024-02-27T03:03:34.548Z,8.01
2024-02-27T03:04:34.444Z,8.07
2024-02-27T03:05:34.422Z,8.06
2024-02-27T03:06:34.540Z,8.11
2024-02-27T03:07:34.413Z,8.15
2024-02-27T03:08:34.434Z,8.21
2024-02-27T03:09:34.419Z,8.28
2024-02-27T03:10:34.407Z,8.29
2024-02-27T03:11:34.455Z,8.36
2024-02-27T03:12:34.929Z,8.27
2024-02-27T03:13:34.406Z,8.28
2024-02-27T03:14:34.430Z,8.25
2024-02-27T03:15:34.494Z,8.24
2024-02-27T03:16:34.525Z,8.28
2024-02-27T03:17:34.510Z,8.34
2024-02-27T03:18:34.517Z,8.42
2024-02-27T03:19:34.530Z,8.44
2024-02-27T03:20:34.415Z,8.43
2024-02-27T03:21:34.498Z,8.46
2024-02-27T03:22:34.405Z,8.39
2024-02-27T03:23:34.461Z,8.40
2024-02-27T03:24:34.553Z,8.48
2024-02-27T03:25:34.463Z,8.45
2024-02-27T03:26:34.450Z,8.39
2024-02-27T03:27:34.544Z,8.37
2024-02-27T03:28:34.458Z,8.35
2024-02-27T03:29:34.481Z,8.34
2024-02-27T03:30:34.509Z,8.31
2024-02-27T03:31:34.451Z,8.27
2024-02-27T03:32:34.627Z,8.27
2024-02-27T03:33:34.669Z,8.27
2024-02-27T03:34:34.686Z,8.28
2024-02-27T03:35:34.476Z,8.27
2024-02-27T03:36:34.494Z,8.14
2024-02-27T03:37:34.439Z,8.08
2024-02-27T03:38:34.511Z,8.09
2024-02-27T03:39:34.519Z,8.04
2024-02-27T03:40:34.470Z,8.10
2024-02-27T03:41:34.489Z,8.19
2024-02-27T03:42:34.562Z,8.25
2024-02-27T03:43:34.503Z,8.28
2024-02-27T03:44:34.517Z,8.30
2024-02-27T03:45:34.538Z,8.32
2024-02-27T03:46:34.475Z,8.31
2024-02-27T03:47:34.556Z,8.30
2024-02-27T03:48:34.630Z,8.33
2024-02-27T03:49:34.665Z,8.34
2024-02-27T03:50:34.480Z,8.41
2024-02-27T03:51:34.589Z,8.40
2024-02-27T03:52:34.526Z,8.47
2024-02-27T03:53:34.565Z,8.55
2024-02-27T03:54:34.628Z,8.61
2024-02-27T03:55:34.578Z,8.55
2024-02-27T03:56:34.596Z,8.62
2024-02-27T03:57:34.813Z,8.66
2024-02-27T03:58:34.651Z,8.64
2024-02-27T03:59:34.690Z,8.63
2024-02-27T04:00:34.813Z,8.58
2024-02-27T04:01:34.752Z,8.60
2024-02-27T04:02:34.779Z,8.66
2024-02-27T04:03:34.864Z,8.69
2024-02-27T04:04:35.093Z,8.69
2024-02-27T04:05:34.974Z,8.60
2024-02-27T04:06:34.962Z,8.62
2024-02-27T04:07:35.384Z,8.63
2024-02-27T04:08:34.891Z,8.51
2024-02-27T04:09:34.990Z,8.43
2024-02-27T04:10:35.051Z,8.39
2024-02-27T04:11:35.065Z,8.33
2024-02-27T04:12:35.179Z,8.37
2024-02-27T04:13:36.338Z,8.38
2024-02-27T04:14:35.199Z,8.44
2024-02-27T04:15:35.236Z,8.53
2024-02-27T04:16:35.288Z,8.53
2024-02-27T04:18:35.408Z,8.58
2024-02-27T04:19:35.524Z,8.58
2024-02-27T04:20:35.481Z,8.52
2024-02-27T04:21:35.425Z,8.55
2024-02-27T04:22:35.472Z,8.59
2024-02-27T04:23:35.474Z,8.59
2024-02-27T04:24:35.514Z,8.54
2024-02-27T04:25:35.486Z,8.46
2024-02-27T04:26:35.531Z,8.42
2024-02-27T04:27:35.661Z,8.36
2024-02-27T04:28:35.714Z,8.35
2024-02-27T04:29:35.597Z,8.32
2024-02-27T04:30:35.684Z,8.25
2024-02-27T04:31:35.655Z,8.30
2024-02-27T04:32:35.725Z,8.33
2024-02-27T04:33:35.823Z,8.27
2024-02-27T04:34:35.923Z,8.23
2024-02-27T04:35:35.778Z,8.15
2024-02-27T04:36:35.952Z,8.24
2024-02-27T04:37:35.896Z,8.26
2024-02-27T04:38:35.863Z,8.23
2024-02-27T04:39:35.918Z,8.09
2024-02-27T04:40:35.922Z,8.08
2024-02-27T04:41:35.974Z,8.17
2024-02-27T04:42:36.039Z,8.17
2024-02-27T04:43:37.845Z,8.15
2024-02-27T04:44:36.058Z,8.06
2024-02-27T04:45:36.141Z,8.18
2024-02-27T04:46:36.138Z,8.17
2024-02-27T04:47:36.208Z,8.10
2024-02-27T04:48:36.442Z,8.03
2024-02-27T04:49:36.411Z,7.92
2024-02-27T04:50:36.345Z,7.86
2024-02-27T04:51:36.400Z,7.81
2024-02-27T04:52:37.005Z,7.87
2024-02-27T04:53:36.477Z,8.00
2024-02-27T04:54:36.580Z,8.07
2024-02-27T04:55:36.558Z,8.17
2024-02-27T04:56:36.608Z,8.21
2024-02-27T04:57:36.698Z,8.20
2024-02-27T04:58:36.724Z,8.12
2024-02-27T04:59:36.762Z,8.09
2024-02-27T05:00:36.902Z,8.09
2024-02-27T05:01:36.878Z,8.11
2024-02-27T05:02:36.935Z,8.18
2024-02-27T05:03:37.439Z,8.24
2024-02-27T05:04:37.076Z,8.16
2024-02-27T05:05:37.106Z,8.22
2024-02-27T05:06:37.177Z,8.24
2024-02-27T05:07:37.178Z,8.29
2024-02-27T05:08:37.302Z,8.27
2024-02-27T05:09:37.343Z,8.19
2024-02-27T05:10:37.303Z,8.25
2024-02-27T05:11:37.316Z,8.22
2024-02-27T05:12:37.430Z,8.26
2024-02-27T05:13:37.426Z,8.22
2024-02-27T05:14:37.479Z,8.19
2024-02-27T05:15:37.810Z,8.13
2024-02-27T05:16:37.551Z,8.19
2024-02-27T05:17:37.645Z,8.14
2024-02-27T05:18:37.794Z,8.02
2024-02-27T05:19:37.763Z,8.08
2024-02-27T05:20:37.739Z,8.14
2024-02-27T05:21:37.771Z,8.13
2024-02-27T05:22:37.832Z,8.14
2024-02-27T05:23:37.931Z,8.19
2024-02-27T05:24:38.144Z,8.17
2024-02-27T05:25:37.970Z,8.20
2024-02-27T05:26:37.989Z,8.20
2024-02-27T05:27:38.204Z,8.25
2024-02-27T05:28:38.117Z,8.26
2024-02-27T05:29:38.164Z,8.27
2024-02-27T05:30:38.252Z,8.32
2024-02-27T05:31:38.243Z,8.36
2024-02-27T05:32:38.321Z,8.38
2024-02-27T05:33:38.548Z,8.41
2024-02-27T05:34:38.524Z,8.44
2024-02-27T05:35:46.079Z,8.45
2024-02-27T05:36:46.099Z,8.45
2024-02-27T05:37:46.160Z,8.39
2024-02-27T05:38:46.105Z,8.33
2024-02-27T05:39:46.171Z,8.38
2024-02-27T05:40:46.073Z,8.42
2024-02-27T05:41:46.122Z,8.44
2024-02-27T05:42:46.169Z,8.48
2024-02-27T05:43:46.098Z,8.50
2024-02-27T05:44:46.101Z,8.50
2024-02-27T05:45:46.126Z,8.51
2024-02-27T05:46:46.104Z,8.53
2024-02-27T05:47:46.142Z,8.52
2024-02-27T05:48:46.242Z,8.51
2024-02-27T05:49:46.165Z,8.49
2024-02-27T05:50:46.116Z,8.51
2024-02-27T05:51:46.184Z,8.52
2024-02-27T05:52:46.119Z,8.51
2024-02-27T05:53:46.133Z,8.55
2024-02-27T05:54:46.253Z,8.59
2024-02-27T05:55:46.199Z,8.60
2024-02-27T05:56:46.143Z,8.60
2024-02-27T05:57:46.191Z,8.51
2024-02-27T05:58:46.138Z,8.50
2024-02-27T05:59:46.147Z,8.48
2024-02-27T06:00:46.182Z,8.44
2024-02-27T06:01:46.148Z,8.49
2024-02-27T06:02:46.200Z,8.49
2024-02-27T06:04:46.176Z,8.40
2024-02-27T06:05:46.155Z,8.35
2024-02-27T06:06:46.255Z,8.32
2024-02-27T06:07:46.230Z,8.39
2024-02-27T06:08:46.140Z,8.48
2024-02-27T06:09:46.246Z,8.53
2024-02-27T06:10:46.186Z,8.52
2024-02-27T06:11:46.234Z,8.49
2024-02-27T06:12:46.197Z,8.47
2024-02-27T06:13:46.188Z,8.44
2024-02-27T06:14:46.191Z,8.35
2024-02-27T06:15:46.226Z,8.27
2024-02-27T06:16:46.199Z,8.25
2024-02-27T06:17:46.223Z,8.29
2024-02-27T06:18:46.216Z,8.30
2024-02-27T06:19:46.248Z,8.38
2024-02-27T06:20:46.191Z,8.34
2024-02-27T06:21:46.228Z,8.36
2024-02-27T06:22:46.208Z,8.42
2024-02-27T06:23:46.734Z,8.43
2024-02-27T06:24:46.320Z,8.40
2024-02-27T06:25:46.270Z,8.44
2024-02-27T06:26:46.177Z,8.37
2024-02-27T06:27:46.340Z,8.33
2024-02-27T06:28:46.209Z,8.38
2024-02-27T06:29:46.260Z,8.43
2024-02-27T06:30:46.256Z,8.40
2024-02-27T06:31:46.208Z,8.29
2024-02-27T06:32:46.237Z,8.31
2024-02-27T06:33:46.409Z,8.40
2024-02-27T06:34:46.335Z,8.42
2024-02-27T06:35:46.232Z,8.38
2024-02-27T06:36:46.240Z,8.43
2024-02-27T06:37:46.222Z,8.43
2024-02-27T06:38:46.203Z,8.45
2024-02-27T06:39:46.266Z,8.50
2024-02-27T06:40:46.258Z,8.56
2024-02-27T06:41:46.255Z,8.60
2024-02-27T06:42:46.248Z,8.63
2024-02-27T06:43:46.779Z,8.67
2024-02-27T06:44:46.255Z,8.69
2024-02-27T06:45:46.245Z,8.71
2024-02-27T06:46:46.222Z,8.73
2024-02-27T06:47:46.325Z,8.74
2024-02-27T06:48:46.324Z,8.75
2024-02-27T06:49:46.452Z,8.76
2024-02-27T06:50:47.067Z,8.75
2024-02-27T06:51:46.253Z,8.75
2024-02-27T06:52:46.243Z,8.69
2024-02-27T06:53:46.715Z,8.71
2024-02-27T06:54:46.272Z,8.73
2024-02-27T06:55:46.322Z,8.73
2024-02-27T06:56:46.283Z,8.75
2024-02-27T06:57:46.863Z,8.78
2024-02-27T06:58:46.693Z,8.76
2024-02-27T06:59:46.363Z,8.79
2024-02-27T07:00:46.494Z,8.72
2024-02-27T07:01:46.366Z,8.69
2024-02-27T07:02:48.416Z,8.66
2024-02-27T07:03:46.329Z,8.57
2024-02-27T07:04:46.333Z,8.58
2024-02-27T07:05:53.045Z,8.58
2024-02-27T07:06:47.457Z,8.57
2024-02-27T07:07:46.297Z,8.63
2024-02-27T07:08:46.294Z,8.67
2024-02-27T07:09:46.324Z,8.73
2024-02-27T07:10:46.304Z,8.64
2024-02-27T07:11:46.327Z,8.65
2024-02-27T07:12:46.290Z,8.69
2024-02-27T07:13:46.307Z,8.74
2024-02-27T07:14:46.353Z,8.75
2024-02-27T07:15:46.402Z,8.69
2024-02-27T07:16:46.300Z,8.68
2024-02-27T07:17:46.426Z,8.71
2024-02-27T07:18:46.754Z,8.71
2024-02-27T07:19:46.306Z,8.74
2024-02-27T07:20:46.422Z,8.75
2024-02-27T07:21:46.334Z,8.72
2024-02-27T07:22:46.330Z,8.62
2024-02-27T07:23:46.717Z,8.63
2024-02-27T07:24:46.354Z,8.56
2024-02-27T07:25:46.312Z,8.58
2024-02-27T07:26:46.311Z,8.59
2024-02-27T07:27:46.367Z,8.54
2024-02-27T07:28:46.333Z,8.46
2024-02-27T07:29:46.406Z,8.48
2024-02-27T07:30:46.449Z,8.43
2024-02-27T07:31:46.469Z,8.34
2024-02-27T07:32:46.459Z,8.34
2024-02-27T07:33:46.764Z,8.31
2024-02-27T07:34:46.537Z,8.29
2024-02-27T07:35:46.662Z,8.28
2024-02-27T07:36:46.521Z,8.27
2024-02-27T07:37:46.497Z,8.26
2024-02-27T07:38:46.720Z,8.25
2024-02-27T07:39:46.667Z,8.27
2024-02-27T07:40:46.580Z,8.27
2024-02-27T07:41:46.569Z,8.24
2024-02-27T07:42:46.604Z,8.25
2024-02-27T07:43:46.576Z,8.29
2024-02-27T07:44:46.589Z,8.34
2024-02-27T07:45:46.679Z,8.33
2024-02-27T07:46:46.656Z,8.36
2024-02-27T07:47:46.762Z,8.34
2024-02-27T07:48:46.692Z,8.28
2024-02-27T07:49:46.631Z,8.31
2024-02-27T07:50:46.690Z,8.36
2024-02-27T07:51:46.742Z,8.39
2024-02-27T07:52:46.696Z,8.37
2024-02-27T07:53:47.219Z,8.38
2024-02-27T07:54:46.767Z,8.36
2024-02-27T07:55:46.783Z,8.33
2024-02-27T07:56:46.836Z,8.28
2024-02-27T07:57:46.913Z,8.24
2024-02-27T07:58:47.201Z,8.24
2024-02-27T07:59:47.060Z,8.27
2024-02-27T08:00:47.197Z,8.26
2024-02-27T08:01:47.197Z,8.31
2024-02-27T08:02:47.201Z,8.34
2024-02-27T08:03:47.472Z,8.32
2024-02-27T08:04:47.333Z,8.35
2024-02-27T08:05:47.427Z,8.38
2024-02-27T08:06:47.573Z,8.35
2024-02-27T08:07:47.735Z,8.34
2024-02-27T08:08:47.694Z,8.34
2024-02-27T08:09:47.725Z,8.31
2024-02-27T08:10:47.856Z,8.31
2024-02-27T08:11:47.835Z,8.31
2024-02-27T08:12:47.885Z,8.34
2024-02-27T08:13:48.222Z,8.37
2024-02-27T08:14:48.041Z,8.43
2024-02-27T08:15:48.190Z,8.45
2024-02-27T08:16:48.148Z,8.45
2024-02-27T08:17:48.272Z,8.43
2024-02-27T08:18:48.366Z,8.42
2024-02-27T08:19:48.584Z,8.46
2024-02-27T08:20:48.433Z,8.48
2024-02-27T08:21:48.536Z,8.52
2024-02-27T08:22:48.585Z,8.51
2024-02-27T08:23:48.682Z,8.53
2024-02-27T08:24:48.724Z,8.54
2024-02-27T08:25:48.802Z,8.53
2024-02-27T08:26:50.744Z,8.54
2024-02-27T08:27:49.128Z,8.57
2024-02-27T08:28:48.881Z,8.58
2024-02-27T08:29:48.864Z,8.60
2024-02-27T08:30:49.092Z,8.58
2024-02-27T08:31:49.033Z,8.60
2024-02-27T08:32:50.754Z,8.67
2024-02-27T08:33:49.388Z,8.66
2024-02-27T08:34:48.971Z,8.70
2024-02-27T08:35:48.985Z,8.81
2024-02-27T08:36:48.961Z,8.85
2024-02-27T08:37:48.908Z,8.80
2024-02-27T08:38:48.897Z,8.82
2024-02-27T08:39:48.885Z,8.81
2024-02-27T08:40:48.900Z,8.79
2024-02-27T08:41:48.993Z,8.80
2024-02-27T08:42:48.979Z,8.89
2024-02-27T08:43:49.239Z,8.92
2024-02-27T08:44:49.068Z,8.86
2024-02-27T08:45:49.122Z,8.83
2024-02-27T08:46:49.121Z,8.85
2024-02-27T08:47:49.184Z,8.79
2024-02-27T08:48:49.466Z,8.79
2024-02-27T08:49:49.261Z,8.80
2024-02-27T08:50:49.187Z,8.82
2024-02-27T08:51:49.287Z,8.82
2024-02-27T08:52:49.247Z,8.84
2024-02-27T08:53:49.747Z,8.93
2024-02-27T08:54:49.292Z,8.91
2024-02-27T08:55:49.340Z,8.83
2024-02-27T08:56:49.316Z,8.80
2024-02-27T08:57:49.370Z,8.84
2024-02-27T08:58:49.410Z,8.93
2024-02-27T08:59:49.470Z,8.90
2024-02-27T09:00:49.595Z,8.84
2024-02-27T09:01:49.440Z,8.70
2024-02-27T09:02:49.483Z,8.60
2024-02-27T09:03:49.788Z,8.61
2024-02-27T09:04:49.530Z,8.64
2024-02-27T09:05:49.578Z,8.75
2024-02-27T09:06:49.759Z,8.84
2024-02-27T09:07:49.678Z,8.92
2024-02-27T09:08:49.617Z,8.92
2024-02-27T09:09:49.726Z,8.91
2024-02-27T09:10:49.627Z,8.86
2024-02-27T09:11:49.648Z,8.88
2024-02-27T09:12:49.707Z,8.89
2024-02-27T09:13:49.763Z,8.92
2024-02-27T09:14:49.677Z,8.98
2024-02-27T09:15:49.856Z,9.04
2024-02-27T09:16:49.695Z,9.12
2024-02-27T09:17:50.024Z,9.20
2024-02-27T09:18:50.413Z,9.15
2024-02-27T09:19:50.010Z,9.13
2024-02-27T09:20:50.001Z,9.07
2024-02-27T09:21:50.030Z,9.04
2024-02-27T09:22:50.062Z,9.03
2024-02-27T09:23:50.183Z,9.07
2024-02-27T09:24:50.236Z,9.15
2024-02-27T09:25:50.282Z,9.23
2024-02-27T09:26:50.488Z,9.22
2024-02-27T09:27:50.550Z,9.23
2024-02-27T09:28:50.737Z,9.22
2024-02-27T09:29:50.608Z,9.32
2024-02-27T09:30:50.661Z,9.44
2024-02-27T09:31:50.761Z,9.47
2024-02-27T09:32:50.798Z,9.47
2024-02-27T09:33:50.967Z,9.42
2024-02-27T09:34:51.120Z,9.40
2024-02-27T09:35:50.887Z,9.58
2024-02-27T09:36:50.932Z,9.64
2024-02-27T09:37:50.927Z,9.66
2024-02-27T09:38:51.245Z,9.66
2024-02-27T09:39:58.050Z,9.71
2024-02-27T09:40:52.016Z,9.76
2024-02-27T09:41:51.075Z,9.78
2024-02-27T09:42:51.126Z,9.71
2024-02-27T09:43:51.347Z,9.69
2024-02-27T09:44:51.011Z,9.69
2024-02-27T09:45:51.111Z,9.73
2024-02-27T09:46:51.032Z,9.76
2024-02-27T09:47:51.208Z,9.78
2024-02-27T09:48:51.396Z,9.76
2024-02-27T09:49:51.081Z,9.76
2024-02-27T09:50:50.992Z,9.79
2024-02-27T09:51:51.007Z,9.71
2024-02-27T09:52:51.043Z,9.58
2024-02-27T09:53:51.230Z,9.49
2024-02-27T09:54:51.044Z,9.41
2024-02-27T09:55:51.105Z,9.32
2024-02-27T09:56:51.094Z,9.26
2024-02-27T09:57:51.505Z,9.26
2024-02-27T09:58:51.269Z,9.26
2024-02-27T09:59:51.167Z,9.30
2024-02-27T10:00:51.311Z,9.36
2024-02-27T10:01:51.429Z,9.39
2024-02-27T10:02:51.392Z,9.35
2024-02-27T10:03:51.825Z,9.28
2024-02-27T10:04:51.389Z,9.30
2024-02-27T10:05:51.474Z,9.25
2024-02-27T10:06:51.583Z,9.24
2024-02-27T10:07:51.624Z,9.27
2024-02-27T10:08:51.750Z,9.23
2024-02-27T10:09:51.564Z,9.27
2024-02-27T10:10:51.642Z,9.31
2024-02-27T10:11:51.597Z,9.31
2024-02-27T10:12:51.660Z,9.34
2024-02-27T10:13:51.758Z,9.33
2024-02-27T10:14:51.790Z,9.34
2024-02-27T10:15:51.808Z,9.41
2024-02-27T10:16:51.804Z,9.42
2024-02-27T10:17:51.944Z,9.47
2024-02-27T10:18:51.988Z,9.43
2024-02-27T10:19:51.920Z,9.45
2024-02-27T10:20:51.953Z,9.49
2024-02-27T10:21:51.936Z,9.48
2024-02-27T10:22:52.039Z,9.51
2024-02-27T10:23:52.306Z,9.54
2024-02-27T10:24:52.001Z,9.56
2024-02-27T10:25:51.956Z,9.60
2024-02-27T10:26:51.985Z,9.64
2024-02-27T10:27:51.979Z,9.64
2024-02-27T10:28:52.258Z,9.63
2024-02-27T10:29:52.039Z,9.65
2024-02-27T10:30:52.087Z,9.64
2024-02-27T10:31:52.127Z,9.63
2024-02-27T10:32:52.243Z,9.70
2024-02-27T10:33:52.339Z,9.83
2024-02-27T10:34:52.491Z,9.84
2024-02-27T10:35:52.328Z,9.85
2024-02-27T10:36:52.342Z,9.85
2024-02-27T10:37:52.363Z,9.84
2024-02-27T10:38:52.420Z,9.86
2024-02-27T10:39:52.391Z,9.93
2024-02-27T10:40:52.391Z,10.02
2024-02-27T10:41:52.429Z,10.10
2024-02-27T10:42:52.525Z,10.15
2024-02-27T10:43:55.390Z,10.22
2024-02-27T10:44:52.417Z,10.31
2024-02-27T10:45:52.490Z,10.42
2024-02-27T10:46:52.446Z,10.43
2024-02-27T10:47:52.510Z,10.38
2024-02-27T10:48:52.908Z,10.38
2024-02-27T10:49:52.472Z,10.46
2024-02-27T10:50:52.465Z,10.55
2024-02-27T10:51:52.461Z,10.52
2024-02-27T10:52:52.489Z,10.56
2024-02-27T10:53:52.480Z,10.52
2024-02-27T10:54:52.489Z,10.52
2024-02-27T10:55:52.469Z,10.56
2024-02-27T10:56:52.486Z,10.56
2024-02-27T10:57:52.540Z,10.60
2024-02-27T10:58:52.750Z,10.72
2024-02-27T10:59:52.510Z,10.80
2024-02-27T11:00:52.572Z,10.77
2024-02-27T11:01:52.541Z,10.80
2024-02-27T11:02:52.548Z,10.89
2024-02-27T11:03:52.526Z,10.98
2024-02-27T11:04:52.636Z,11.04
2024-02-27T11:05:52.619Z,11.06
2024-02-27T11:06:52.718Z,10.99
2024-02-27T11:07:52.613Z,10.98
2024-02-27T11:08:52.771Z,10.97
2024-02-27T11:09:52.810Z,10.98
2024-02-27T11:10:53.877Z,11.06
2024-02-27T11:11:52.887Z,11.11
2024-02-27T11:12:52.966Z,11.15
2024-02-27T11:13:53.283Z,11.39
2024-02-27T11:14:52.956Z,11.53
2024-02-27T11:15:53.032Z,11.70
2024-02-27T11:16:52.958Z,11.74
2024-02-27T11:17:53.021Z,11.65
2024-02-27T11:18:53.443Z,11.61
2024-02-27T11:19:53.185Z,11.66
2024-02-27T11:20:53.030Z,11.74
2024-02-27T11:21:53.125Z,11.74
2024-02-27T11:22:53.099Z,11.72
2024-02-27T11:23:53.274Z,11.71
2024-02-27T11:24:53.214Z,11.73
2024-02-27T11:25:53.285Z,11.80
2024-02-27T11:26:53.228Z,11.80
2024-02-27T11:27:53.250Z,11.84
2024-02-27T11:28:53.268Z,11.91
2024-02-27T11:29:53.350Z,11.96
2024-02-27T11:30:53.402Z,11.98
2024-02-27T11:31:54.289Z,11.98
2024-02-27T11:33:54.024Z,11.92
2024-02-27T11:34:53.779Z,11.91
2024-02-27T11:35:53.654Z,11.89
2024-02-27T11:36:53.762Z,11.80
2024-02-27T11:37:53.804Z,11.83
2024-02-27T11:39:16.944Z,11.93
2024-02-27T11:39:53.942Z,11.94
2024-02-27T11:40:54.260Z,12.00
2024-02-27T11:41:53.869Z,12.06
2024-02-27T11:42:53.901Z,12.10
2024-02-27T11:43:54.295Z,12.17
2024-02-27T11:44:53.869Z,12.17
2024-02-27T11:45:53.912Z,12.17
2024-02-27T11:46:53.879Z,12.22
2024-02-27T11:47:54.209Z,12.30
2024-02-27T11:48:54.062Z,12.30
2024-02-27T11:49:54.084Z,12.28
2024-02-27T11:50:54.061Z,12.33
2024-02-27T11:51:54.045Z,12.35
2024-02-27T11:52:54.079Z,12.30
2024-02-27T11:53:54.138Z,12.35
2024-02-27T11:54:54.249Z,12.42
2024-02-27T11:55:54.201Z,12.49
2024-02-27T11:56:54.226Z,12.52
2024-02-27T11:57:54.230Z,12.53
2024-02-27T11:58:54.286Z,12.51
2024-02-27T11:59:54.229Z,12.59
2024-02-27T12:00:54.409Z,12.61
2024-02-27T12:01:55.903Z,12.66
2024-02-27T12:02:54.257Z,12.71
2024-02-27T12:03:54.340Z,12.76
2024-02-27T12:04:54.356Z,12.77
2024-02-27T12:05:54.272Z,12.80
2024-02-27T12:06:54.288Z,12.79
2024-02-27T12:07:54.267Z,12.72
2024-02-27T12:08:54.294Z,12.77
2024-02-27T12:09:54.347Z,12.81
2024-02-27T12:10:54.285Z,12.87
2024-02-27T12:11:54.276Z,12.95
2024-02-27T12:12:54.340Z,13.01
2024-02-27T12:13:54.282Z,13.08
2024-02-27T12:14:54.278Z,13.15
2024-02-27T12:15:54.351Z,13.26
2024-02-27T12:16:54.291Z,13.38
2024-02-27T12:17:54.499Z,13.44
2024-02-27T12:18:54.437Z,13.34
2024-02-27T12:19:54.513Z,13.28
2024-02-27T12:20:54.335Z,13.26
2024-02-27T12:21:54.442Z,13.27
2024-02-27T12:22:54.276Z,13.24
2024-02-27T12:23:55.365Z,13.20
2024-02-27T12:24:54.407Z,13.24
2024-02-27T12:25:54.332Z,13.29
2024-02-27T12:26:54.297Z,13.27
2024-02-27T12:27:54.370Z,13.17
2024-02-27T12:28:54.831Z,13.10
2024-02-27T12:29:54.323Z,13.04
2024-02-27T12:30:54.368Z,12.99
2024-02-27T12:31:54.368Z,12.92
2024-02-27T12:32:54.368Z,12.89
2024-02-27T12:33:54.983Z,12.82
2024-02-27T12:34:54.354Z,12.80
2024-02-27T12:35:54.407Z,12.78
2024-02-27T12:36:54.608Z,12.78
2024-02-27T12:37:54.524Z,12.77
2024-02-27T12:38:54.789Z,12.76
2024-02-27T12:39:54.699Z,12.75
2024-02-27T12:40:54.790Z,12.76
2024-02-27T12:41:54.846Z,12.75
2024-02-27T12:42:54.930Z,12.74
2024-02-27T12:43:55.291Z,12.82
2024-02-27T12:44:54.985Z,12.87
2024-02-27T12:45:55.149Z,12.86
2024-02-27T12:46:55.125Z,12.86
2024-02-27T12:47:55.437Z,12.83
2024-02-27T12:48:55.465Z,12.85
2024-02-27T12:49:55.392Z,12.89
2024-02-27T12:50:55.401Z,12.93
2024-02-27T12:51:55.498Z,12.93
2024-02-27T12:53:02.584Z,12.93
2024-02-27T12:53:56.549Z,13.02
2024-02-27T12:54:55.604Z,13.12
2024-02-27T12:55:55.532Z,13.18
2024-02-27T12:56:55.584Z,13.20
2024-02-27T12:57:55.590Z,13.23
2024-02-27T12:58:55.590Z,13.25
2024-02-27T12:59:55.554Z,13.27
2024-02-27T13:00:55.733Z,13.26
2024-02-27T13:01:55.593Z,13.33
2024-02-27T13:02:55.575Z,13.37
2024-02-27T13:03:55.659Z,13.40
2024-02-27T13:04:55.632Z,13.45
2024-02-27T13:05:55.849Z,13.45
2024-02-27T13:06:55.776Z,13.47
2024-02-27T13:07:55.923Z,13.45
2024-02-27T13:08:55.738Z,13.41
2024-02-27T13:09:55.755Z,13.38
2024-02-27T13:10:55.883Z,13.38
2024-02-27T13:11:55.870Z,13.34
2024-02-27T13:12:55.899Z,13.30
2024-02-27T13:13:55.940Z,13.24
2024-02-27T13:14:55.908Z,13.23
2024-02-27T13:15:56.079Z,13.20
2024-02-27T13:16:56.001Z,13.19